createdAt,value
2019-03-31T00:02:04.918Z,101281.00
2019-03-31T00:04:35.882Z,101292.00
2019-03-31T00:07:07.201Z,101287.00
2019-03-31T00:09:38.060Z,101290.00
2019-03-31T00:12:09.836Z,101292.00
2019-03-31T00:14:40.845Z,101293.00
2019-03-31T00:17:11.868Z,101293.00
2019-03-31T00:19:43.046Z,101285.00
2019-03-31T00:22:14.039Z,101289.00
2019-03-31T00:24:45.050Z,101299.00
2019-03-31T00:27:15.991Z,101300.00
2019-03-31T00:29:46.933Z,101298.00
2019-03-31T00:32:17.922Z,101306.00
2019-03-31T00:34:48.956Z,101299.00
2019-03-31T00:37:19.891Z,101303.00
2019-03-31T00:39:50.899Z,101298.00
2019-03-31T00:42:26.183Z,101297.00
2019-03-31T00:44:57.196Z,101296.00
2019-03-31T00:47:28.275Z,101303.00
2019-03-31T00:49:59.253Z,101288.00
2019-03-31T00:52:30.387Z,101280.00
2019-03-31T00:55:01.479Z,101288.00
2019-03-31T00:57:32.366Z,101294.00
2019-03-31T01:00:04.009Z,101297.00
2019-03-31T01:02:37.835Z,101293.00
2019-03-31T01:05:09.116Z,101300.00
2019-03-31T01:07:40.096Z,101285.00
2019-03-31T01:10:11.388Z,101287.00
2019-03-31T01:12:42.719Z,101303.00
2019-03-31T01:15:17.385Z,101298.00
2019-03-31T01:17:48.783Z,101295.00
2019-03-31T01:20:19.831Z,101296.00
2019-03-31T01:22:50.760Z,101300.00
2019-03-31T01:25:21.959Z,101303.00
2019-03-31T01:27:53.564Z,101305.00
2019-03-31T01:30:24.670Z,101302.00
2019-03-31T01:32:59.950Z,101306.00
2019-03-31T01:35:31.252Z,101312.00
2019-03-31T01:38:02.200Z,101303.00
2019-03-31T01:40:33.110Z,101298.00
2019-03-31T01:43:04.102Z,101312.00
2019-03-31T01:45:35.116Z,101302.00
2019-03-31T01:48:06.210Z,101309.00
2019-03-31T01:50:37.144Z,101310.00
2019-03-31T01:53:08.068Z,101316.00
2019-03-31T01:55:40.548Z,101322.00
2019-03-31T01:58:12.677Z,101313.00
2019-03-31T02:00:47.157Z,101321.00
2019-03-31T02:03:18.219Z,101320.00
2019-03-31T02:05:49.083Z,101331.00
2019-03-31T02:08:20.148Z,101324.00
2019-03-31T02:10:51.075Z,101332.00
2019-03-31T02:13:22.171Z,101331.00
2019-03-31T02:15:52.993Z,101338.00
2019-03-31T02:18:24.033Z,101338.00
2019-03-31T02:20:54.989Z,101340.00
2019-03-31T02:23:26.010Z,101346.00
2019-03-31T02:25:56.923Z,101332.00
2019-03-31T02:28:27.932Z,101327.00
2019-03-31T02:30:58.990Z,101333.00
2019-03-31T02:33:30.049Z,101342.00
2019-03-31T02:36:00.889Z,101346.00
2019-03-31T02:38:31.791Z,101346.00
2019-03-31T02:41:02.875Z,101336.00
2019-03-31T02:43:33.858Z,101334.00
2019-03-31T02:46:04.844Z,101340.00
2019-03-31T02:48:35.815Z,101341.00
2019-03-31T02:51:06.859Z,101341.00
2019-03-31T02:53:37.946Z,101344.00
2019-03-31T02:56:09.341Z,101347.00
2019-03-31T02:58:41.024Z,101351.00
2019-03-31T03:01:12.705Z,101351.00
2019-03-31T03:03:44.557Z,101359.00
2019-03-31T03:06:15.934Z,101361.00
2019-03-31T03:08:49.790Z,101352.00
2019-03-31T03:11:23.137Z,101364.00
2019-03-31T03:13:54.395Z,101373.00
2019-03-31T03:16:25.450Z,101357.00
2019-03-31T03:18:56.639Z,101371.00
2019-03-31T03:21:27.639Z,101369.00
2019-03-31T03:23:58.595Z,101363.00
2019-03-31T03:26:29.590Z,101374.00
2019-03-31T03:29:00.531Z,101373.00
2019-03-31T03:31:31.451Z,101377.00
2019-03-31T03:34:02.372Z,101377.00
2019-03-31T03:36:33.315Z,101383.00
2019-03-31T03:39:09.816Z,101379.00
2019-03-31T03:41:40.729Z,101380.00
2019-03-31T03:44:11.654Z,101386.00
2019-03-31T03:46:42.611Z,101385.00
2019-03-31T03:49:13.694Z,101401.00
2019-03-31T03:51:44.725Z,101394.00
2019-03-31T03:54:15.612Z,101405.00
2019-03-31T03:56:48.674Z,101406.00
2019-03-31T03:59:19.716Z,101417.00
2019-03-31T04:01:53.617Z,101428.00
2019-03-31T04:04:25.854Z,101435.00
2019-03-31T04:06:56.770Z,101433.00
2019-03-31T04:09:27.784Z,101441.00
2019-03-31T04:11:58.719Z,101434.00
2019-03-31T04:14:29.686Z,101443.00
2019-03-31T04:17:00.613Z,101455.00
2019-03-31T04:19:31.608Z,101460.00
2019-03-31T04:22:02.542Z,101452.00
2019-03-31T04:24:34.118Z,101450.00
2019-03-31T04:27:05.083Z,101453.00
2019-03-31T04:29:35.992Z,101448.00
2019-03-31T04:32:06.801Z,101451.00
2019-03-31T04:34:37.700Z,101456.00
2019-03-31T04:37:08.534Z,101468.00
2019-03-31T04:39:39.394Z,101470.00
2019-03-31T04:42:10.251Z,101470.00
2019-03-31T04:44:41.072Z,101484.00
2019-03-31T04:47:11.908Z,101482.00
2019-03-31T04:49:42.807Z,101483.00
2019-03-31T04:52:13.655Z,101477.00
2019-03-31T04:54:45.009Z,101500.00
2019-03-31T04:57:15.882Z,101488.00
2019-03-31T04:59:46.703Z,101485.00
2019-03-31T05:02:17.462Z,101505.00
2019-03-31T05:04:48.248Z,101501.00
2019-03-31T05:07:19.148Z,101500.00
2019-03-31T05:09:49.960Z,101510.00
2019-03-31T05:12:20.988Z,101510.00
2019-03-31T05:14:51.797Z,101508.00
2019-03-31T05:17:23.114Z,101515.00
2019-03-31T05:19:54.418Z,101516.00
2019-03-31T05:22:25.752Z,101516.00
2019-03-31T05:24:56.886Z,101524.00
2019-03-31T05:27:28.214Z,101526.00
2019-03-31T05:29:59.667Z,101519.00
2019-03-31T05:32:30.878Z,101529.00
2019-03-31T05:35:02.145Z,101527.00
2019-03-31T05:37:33.391Z,101532.00
2019-03-31T05:40:05.233Z,101537.00
2019-03-31T05:42:37.748Z,101544.00
2019-03-31T05:45:09.259Z,101542.00
2019-03-31T05:47:40.409Z,101549.00
2019-03-31T05:50:11.809Z,101555.00
2019-03-31T05:52:43.257Z,101558.00
2019-03-31T05:55:14.551Z,101560.00
2019-03-31T05:57:45.701Z,101565.00
2019-03-31T06:00:21.450Z,101574.00
2019-03-31T06:02:52.733Z,101569.00
2019-03-31T06:05:23.953Z,101578.00
2019-03-31T06:07:55.486Z,101577.00
2019-03-31T06:10:27.044Z,101578.00
2019-03-31T06:12:58.538Z,101585.00
2019-03-31T06:15:29.954Z,101572.00
2019-03-31T06:18:03.898Z,101577.00
2019-03-31T06:20:35.258Z,101571.00
2019-03-31T06:23:06.593Z,101573.00
2019-03-31T06:25:38.290Z,101571.00
2019-03-31T06:28:09.866Z,101575.00
2019-03-31T06:30:41.132Z,101582.00
2019-03-31T06:33:12.816Z,101580.00
2019-03-31T06:35:44.502Z,101585.00
2019-03-31T06:38:15.859Z,101591.00
2019-03-31T06:40:49.915Z,101592.00
2019-03-31T06:43:21.282Z,101588.00
2019-03-31T06:45:52.540Z,101590.00
2019-03-31T06:48:26.255Z,101592.00
2019-03-31T06:50:58.714Z,101596.00
2019-03-31T06:53:30.126Z,101599.00
2019-03-31T06:56:04.514Z,101598.00
2019-03-31T06:58:37.521Z,101603.00
2019-03-31T07:01:08.775Z,101603.00
2019-03-31T07:03:39.952Z,101606.00
2019-03-31T07:06:11.350Z,101601.00
2019-03-31T07:08:45.689Z,101596.00
2019-03-31T07:11:16.901Z,101602.00
2019-03-31T07:13:48.301Z,101604.00
2019-03-31T07:16:23.021Z,101606.00
2019-03-31T07:18:54.109Z,101618.00
2019-03-31T07:21:25.399Z,101619.00
2019-03-31T07:24:00.189Z,101620.00
2019-03-31T07:26:31.947Z,101619.00
2019-03-31T07:29:03.436Z,101620.00
2019-03-31T07:31:35.160Z,101638.00
2019-03-31T07:34:06.336Z,101640.00
2019-03-31T07:36:37.682Z,101640.00
2019-03-31T07:39:09.327Z,101643.00
2019-03-31T07:41:41.265Z,101640.00
2019-03-31T07:44:15.329Z,101641.00
2019-03-31T07:46:46.128Z,101645.00
2019-03-31T07:49:19.452Z,101652.00
2019-03-31T07:51:51.821Z,101654.00
2019-03-31T07:54:23.174Z,101653.00
2019-03-31T07:56:57.650Z,101662.00
2019-03-31T07:59:28.908Z,101655.00
2019-03-31T08:02:00.215Z,101655.00
2019-03-31T08:04:31.504Z,101657.00
2019-03-31T08:07:02.922Z,101656.00
2019-03-31T08:09:34.308Z,101661.00
2019-03-31T08:12:05.406Z,101660.00
2019-03-31T08:14:36.480Z,101651.00
2019-03-31T08:17:07.849Z,101662.00
2019-03-31T08:19:40.933Z,101665.00
2019-03-31T08:22:12.553Z,101673.00
2019-03-31T08:24:45.655Z,101678.00
2019-03-31T08:27:19.444Z,101686.00
2019-03-31T08:30:00.141Z,101682.00
2019-03-31T08:32:23.623Z,101683.00
2019-03-31T08:34:55.819Z,101693.00
2019-03-31T08:37:27.105Z,101699.00
2019-03-31T08:39:59.549Z,101695.00
2019-03-31T08:42:30.916Z,101692.00
2019-03-31T08:45:01.934Z,101689.00
2019-03-31T08:47:33.202Z,101697.00
2019-03-31T08:50:04.980Z,101697.00
2019-03-31T08:52:36.131Z,101690.00
2019-03-31T08:55:07.820Z,101708.00
2019-03-31T08:57:38.978Z,101698.00
2019-03-31T09:00:16.111Z,101710.00
2019-03-31T09:02:47.500Z,101713.00
2019-03-31T09:05:18.596Z,101710.00
2019-03-31T09:07:49.892Z,101705.00
2019-03-31T09:10:22.875Z,101718.00
2019-03-31T09:12:54.253Z,101707.00
2019-03-31T09:15:25.570Z,101705.00
2019-03-31T09:17:57.105Z,101717.00
2019-03-31T09:20:31.038Z,101715.00
2019-03-31T09:23:05.457Z,101715.00
2019-03-31T09:25:37.227Z,101725.00
2019-03-31T09:28:08.944Z,101727.00
2019-03-31T09:30:40.547Z,101724.00
2019-03-31T09:33:11.919Z,101727.00
2019-03-31T09:35:43.505Z,101726.00
2019-03-31T09:38:14.985Z,101732.00
2019-03-31T09:40:46.185Z,101733.00
2019-03-31T09:43:17.878Z,101727.00
2019-03-31T09:45:49.473Z,101726.00
2019-03-31T09:48:21.073Z,101722.00
2019-03-31T09:50:52.659Z,101726.00
2019-03-31T09:53:23.965Z,101714.00
2019-03-31T09:55:55.468Z,101721.00
2019-03-31T09:58:27.102Z,101718.00
2019-03-31T10:00:58.624Z,101724.00
2019-03-31T10:03:30.188Z,101716.00
2019-03-31T10:06:10.809Z,101723.00
2019-03-31T10:08:34.958Z,101718.00
2019-03-31T10:11:06.660Z,101722.00
2019-03-31T10:13:37.926Z,101724.00
2019-03-31T10:16:09.369Z,101726.00
2019-03-31T10:18:40.819Z,101734.00
2019-03-31T10:21:14.106Z,101735.00
2019-03-31T10:23:45.437Z,101727.00
2019-03-31T10:26:30.960Z,101712.00
2019-03-31T10:28:49.867Z,101717.00
2019-03-31T10:31:23.772Z,101725.00
2019-03-31T10:33:55.249Z,101718.00
2019-03-31T10:36:28.051Z,101707.00
2019-03-31T10:38:59.211Z,101712.00
2019-03-31T10:41:31.089Z,101712.00
2019-03-31T10:44:02.342Z,101717.00
2019-03-31T10:46:33.527Z,101722.00
2019-03-31T10:49:05.203Z,101719.00
2019-03-31T10:51:39.544Z,101716.00
2019-03-31T10:54:16.755Z,101723.00
2019-03-31T10:56:51.843Z,101722.00
2019-03-31T10:59:26.843Z,101706.00
2019-03-31T11:01:57.854Z,101704.00
2019-03-31T11:04:32.844Z,101709.00
2019-03-31T11:07:04.066Z,101704.00
2019-03-31T11:09:35.394Z,101705.00
2019-03-31T11:12:06.579Z,101715.00
2019-03-31T11:14:37.873Z,101720.00
2019-03-31T11:17:09.077Z,101723.00
2019-03-31T11:19:40.750Z,101724.00
2019-03-31T11:22:27.744Z,101726.00
2019-03-31T11:24:59.044Z,101725.00
2019-03-31T11:27:30.235Z,101720.00
2019-03-31T11:30:03.715Z,101721.00
2019-03-31T11:32:35.360Z,101723.00
2019-03-31T11:35:07.030Z,101719.00
2019-03-31T11:37:38.360Z,101728.00
2019-03-31T11:40:09.930Z,101722.00
2019-03-31T11:42:44.800Z,101722.00
2019-03-31T11:45:16.354Z,101730.00
2019-03-31T11:47:49.150Z,101733.00
2019-03-31T11:50:20.740Z,101720.00
2019-03-31T11:52:51.844Z,101718.00
2019-03-31T11:55:22.949Z,101726.00
2019-03-31T11:57:54.274Z,101728.00
2019-03-31T12:00:26.005Z,101730.00
2019-03-31T12:02:59.791Z,101730.00
2019-03-31T12:05:30.961Z,101721.00
2019-03-31T12:08:02.104Z,101722.00
2019-03-31T12:10:33.369Z,101732.00
2019-03-31T12:13:07.165Z,101730.00
2019-03-31T12:15:38.359Z,101737.00
2019-03-31T12:18:09.516Z,101730.00
2019-03-31T12:20:40.867Z,101736.00
2019-03-31T12:23:12.162Z,101736.00
2019-03-31T12:25:45.003Z,101742.00
2019-03-31T12:28:16.050Z,101734.00
2019-03-31T12:30:47.109Z,101739.00
2019-03-31T12:33:18.329Z,101725.00
2019-03-31T12:35:49.514Z,101726.00
2019-03-31T12:38:20.765Z,101714.00
2019-03-31T12:40:51.860Z,101729.00
2019-03-31T12:43:23.019Z,101713.00
2019-03-31T12:45:54.387Z,101727.00
2019-03-31T12:48:25.917Z,101725.00
2019-03-31T12:50:57.121Z,101731.00
2019-03-31T12:53:28.381Z,101721.00
2019-03-31T12:56:00.689Z,101727.00
2019-03-31T12:58:32.144Z,101729.00
2019-03-31T13:01:06.325Z,101725.00
2019-03-31T13:03:40.222Z,101717.00
2019-03-31T13:06:11.402Z,101715.00
2019-03-31T13:08:42.737Z,101724.00
2019-03-31T13:11:14.326Z,101719.00
2019-03-31T13:13:45.524Z,101715.00
2019-03-31T13:16:16.984Z,101718.00
2019-03-31T13:18:48.242Z,101721.00
2019-03-31T13:21:19.637Z,101722.00
2019-03-31T13:23:50.892Z,101721.00
2019-03-31T13:26:22.121Z,101720.00
2019-03-31T13:28:53.490Z,101726.00
2019-03-31T13:31:24.582Z,101711.00
2019-03-31T13:33:56.025Z,101712.00
2019-03-31T13:36:27.335Z,101718.00
2019-03-31T13:38:58.427Z,101715.00
2019-03-31T13:41:29.631Z,101703.00
2019-03-31T13:44:01.017Z,101702.00
2019-03-31T13:46:32.193Z,101699.00
2019-03-31T13:49:03.477Z,101699.00
2019-03-31T13:51:34.618Z,101692.00
2019-03-31T13:54:05.805Z,101700.00
2019-03-31T13:56:37.286Z,101691.00
2019-03-31T13:59:09.234Z,101686.00
2019-03-31T14:01:43.441Z,101686.00
2019-03-31T14:04:14.792Z,101697.00
2019-03-31T14:06:47.660Z,101690.00
2019-03-31T14:09:18.749Z,101703.00
2019-03-31T14:11:50.161Z,101693.00
2019-03-31T14:14:21.219Z,101696.00
2019-03-31T14:16:52.069Z,101700.00
2019-03-31T14:19:23.298Z,101697.00
2019-03-31T14:21:54.496Z,101697.00
2019-03-31T14:24:27.075Z,101690.00
2019-03-31T14:26:58.305Z,101691.00
2019-03-31T14:29:29.504Z,101700.00
2019-03-31T14:32:00.450Z,101701.00
2019-03-31T14:34:31.651Z,101702.00
2019-03-31T14:37:02.806Z,101708.00
2019-03-31T14:39:33.819Z,101701.00
2019-03-31T14:42:07.089Z,101708.00
2019-03-31T14:44:38.237Z,101711.00
2019-03-31T14:47:09.389Z,101702.00
2019-03-31T14:49:40.420Z,101702.00
2019-03-31T14:52:11.485Z,101703.00
2019-03-31T14:54:42.706Z,101705.00
2019-03-31T14:57:14.018Z,101699.00
2019-03-31T14:59:45.448Z,101690.00
2019-03-31T15:02:16.770Z,101693.00
2019-03-31T15:04:47.862Z,101693.00
2019-03-31T15:07:18.856Z,101692.00
2019-03-31T15:09:50.172Z,101695.00
2019-03-31T15:12:25.826Z,101696.00
2019-03-31T15:14:58.866Z,101707.00
2019-03-31T15:17:30.095Z,101700.00
2019-03-31T15:20:01.133Z,101702.00
2019-03-31T15:22:32.363Z,101696.00
2019-03-31T15:25:06.327Z,101696.00
2019-03-31T15:27:37.755Z,101702.00
2019-03-31T15:30:09.551Z,101703.00
2019-03-31T15:32:41.042Z,101703.00
2019-03-31T15:35:12.180Z,101697.00
2019-03-31T15:37:43.499Z,101696.00
2019-03-31T15:40:14.899Z,101699.00
2019-03-31T15:42:46.115Z,101694.00
2019-03-31T15:45:17.239Z,101688.00
2019-03-31T15:47:49.429Z,101695.00
2019-03-31T15:50:21.660Z,101697.00
2019-03-31T15:52:55.973Z,101696.00
2019-03-31T15:55:33.501Z,101697.00
2019-03-31T15:58:05.491Z,101698.00
2019-03-31T16:00:38.565Z,101700.00
2019-03-31T16:03:09.761Z,101710.00
2019-03-31T16:05:41.083Z,101696.00
2019-03-31T16:08:11.952Z,101710.00
2019-03-31T16:10:42.865Z,101703.00
2019-03-31T16:13:13.466Z,101696.00
2019-03-31T16:15:44.460Z,101704.00
2019-03-31T16:18:15.616Z,101704.00
2019-03-31T16:20:46.364Z,101703.00
2019-03-31T16:23:17.161Z,101693.00
2019-03-31T16:25:53.042Z,101701.00
2019-03-31T16:28:23.722Z,101701.00
2019-03-31T16:30:57.632Z,101707.00
2019-03-31T16:33:28.538Z,101708.00
2019-03-31T16:35:59.402Z,101717.00
2019-03-31T16:38:30.976Z,101712.00
2019-03-31T16:41:01.926Z,101721.00
2019-03-31T16:43:34.475Z,101726.00
2019-03-31T16:46:05.285Z,101717.00
2019-03-31T16:48:36.005Z,101725.00
2019-03-31T16:51:06.799Z,101726.00
2019-03-31T16:53:37.287Z,101726.00
2019-03-31T16:56:08.093Z,101716.00
2019-03-31T16:58:38.941Z,101738.00
2019-03-31T17:01:09.773Z,101729.00
2019-03-31T17:03:40.902Z,101732.00
2019-03-31T17:06:11.735Z,101726.00
2019-03-31T17:08:42.149Z,101727.00
2019-03-31T17:11:13.576Z,101736.00
2019-03-31T17:13:44.503Z,101738.00
2019-03-31T17:16:15.624Z,101739.00
2019-03-31T17:18:49.537Z,101733.00
2019-03-31T17:21:20.387Z,101738.00
2019-03-31T17:23:51.301Z,101736.00
2019-03-31T17:26:22.172Z,101739.00
2019-03-31T17:28:53.250Z,101745.00
2019-03-31T17:31:26.767Z,101746.00
2019-03-31T17:33:57.660Z,101743.00
2019-03-31T17:36:29.120Z,101739.00
2019-03-31T17:39:01.253Z,101734.00
2019-03-31T17:41:31.789Z,101745.00
2019-03-31T17:44:02.203Z,101744.00
2019-03-31T17:46:32.785Z,101737.00
2019-03-31T17:49:03.396Z,101747.00
2019-03-31T17:51:34.013Z,101750.00
2019-03-31T17:54:06.167Z,101754.00
2019-03-31T17:56:36.858Z,101761.00
2019-03-31T17:59:09.664Z,101755.00
2019-03-31T18:01:44.945Z,101762.00
2019-03-31T18:04:14.418Z,101765.00
2019-03-31T18:06:47.460Z,101749.00
2019-03-31T18:09:17.828Z,101760.00
2019-03-31T18:11:48.138Z,101763.00
2019-03-31T18:14:21.637Z,101769.00
2019-03-31T18:16:53.050Z,101772.00
2019-03-31T18:19:23.665Z,101771.00
2019-03-31T18:21:53.971Z,101776.00
2019-03-31T18:24:24.357Z,101778.00
2019-03-31T18:26:54.981Z,101780.00
2019-03-31T18:29:25.341Z,101775.00
2019-03-31T18:31:55.713Z,101782.00
2019-03-31T18:34:26.218Z,101793.00
2019-03-31T18:36:56.595Z,101789.00
2019-03-31T18:39:27.198Z,101791.00
2019-03-31T18:41:57.722Z,101795.00
2019-03-31T18:44:28.300Z,101796.00
2019-03-31T18:46:59.104Z,101799.00
2019-03-31T18:49:29.661Z,101798.00
2019-03-31T18:52:00.298Z,101798.00
2019-03-31T18:54:48.290Z,101806.00
2019-03-31T18:57:30.799Z,101805.00
2019-03-31T19:00:17.077Z,101808.00
2019-03-31T19:03:06.959Z,101811.00
2019-03-31T19:05:55.678Z,101817.00
2019-03-31T19:08:43.749Z,101819.00
2019-03-31T19:11:31.073Z,101826.00
2019-03-31T19:14:20.796Z,101827.00
2019-03-31T19:17:10.566Z,101825.00
2019-03-31T19:19:47.561Z,101824.00
2019-03-31T19:22:49.300Z,101817.00
2019-03-31T19:25:50.947Z,101839.00
2019-03-31T19:28:39.211Z,101829.00
2019-03-31T19:31:27.197Z,101829.00
2019-03-31T19:34:23.099Z,101851.00
2019-03-31T19:37:30.596Z,101849.00
2019-03-31T19:40:29.089Z,101851.00
2019-03-31T19:43:12.676Z,101859.00
2019-03-31T19:46:08.022Z,101848.00
2019-03-31T19:48:43.612Z,101856.00
2019-03-31T19:51:31.492Z,101855.00
2019-03-31T19:54:23.881Z,101862.00
2019-03-31T19:57:17.649Z,101861.00
2019-03-31T20:00:13.839Z,101871.00
2019-03-31T20:02:55.823Z,101874.00
2019-03-31T20:05:45.220Z,101864.00
2019-03-31T20:08:49.574Z,101880.00
2019-03-31T20:11:42.484Z,101876.00
2019-03-31T20:14:42.272Z,101887.00
2019-03-31T20:17:30.369Z,101887.00
2019-03-31T20:20:18.322Z,101870.00
2019-03-31T20:23:05.676Z,101877.00
2019-03-31T20:25:53.942Z,101872.00
2019-03-31T20:28:43.400Z,101876.00
2019-03-31T20:31:52.978Z,101888.00
2019-03-31T20:34:45.172Z,101888.00
2019-03-31T20:37:43.644Z,101887.00
2019-03-31T20:40:36.137Z,101892.00
2019-03-31T20:43:40.329Z,101887.00
2019-03-31T20:46:16.476Z,101900.00
2019-03-31T20:48:47.283Z,101898.00
2019-03-31T20:51:17.979Z,101900.00
2019-03-31T20:53:48.863Z,101909.00
2019-03-31T20:56:19.431Z,101903.00
2019-03-31T20:58:49.839Z,101899.00
2019-03-31T21:01:20.545Z,101906.00
2019-03-31T21:03:51.177Z,101901.00
2019-03-31T21:06:21.688Z,101903.00
2019-03-31T21:08:55.778Z,101905.00
2019-03-31T21:11:26.395Z,101914.00
2019-03-31T21:13:57.386Z,101907.00
2019-03-31T21:16:28.083Z,101916.00
2019-03-31T21:18:59.860Z,101914.00
2019-03-31T21:21:30.714Z,101920.00
2019-03-31T21:24:01.335Z,101924.00
2019-03-31T21:26:36.567Z,101929.00
2019-03-31T21:29:09.544Z,101929.00
2019-03-31T21:31:41.274Z,101924.00
2019-03-31T21:34:12.193Z,101921.00
2019-03-31T21:36:43.407Z,101923.00
2019-03-31T21:39:14.500Z,101933.00
2019-03-31T21:41:45.254Z,101932.00
2019-03-31T21:44:17.338Z,101943.00
2019-03-31T21:46:48.086Z,101936.00
2019-03-31T21:49:18.796Z,101937.00
2019-03-31T21:51:49.300Z,101938.00
2019-03-31T21:54:20.160Z,101941.00
2019-03-31T21:56:50.669Z,101938.00
2019-03-31T21:59:23.230Z,101944.00
2019-03-31T22:01:53.606Z,101942.00
2019-03-31T22:04:24.051Z,101934.00
2019-03-31T22:06:54.524Z,101934.00
2019-03-31T22:09:28.761Z,101942.00
2019-03-31T22:12:01.246Z,101946.00
2019-03-31T22:14:31.810Z,101937.00
2019-03-31T22:17:02.597Z,101935.00
2019-03-31T22:19:33.334Z,101944.00
2019-03-31T22:22:03.823Z,101935.00
2019-03-31T22:24:34.375Z,101942.00
2019-03-31T22:27:05.172Z,101934.00
2019-03-31T22:29:36.422Z,101936.00
2019-03-31T22:32:07.054Z,101930.00
2019-03-31T22:34:39.647Z,101939.00
2019-03-31T22:37:10.170Z,101940.00
2019-03-31T22:39:40.799Z,101934.00
2019-03-31T22:42:11.572Z,101934.00
2019-03-31T22:44:42.430Z,101939.00
2019-03-31T22:47:13.025Z,101935.00
2019-03-31T22:49:45.460Z,101930.00
2019-03-31T22:52:15.968Z,101927.00
2019-03-31T22:54:49.695Z,101928.00
2019-03-31T22:57:22.086Z,101936.00
2019-03-31T22:59:52.808Z,101930.00
2019-03-31T23:02:24.074Z,101926.00
2019-03-31T23:04:56.800Z,101934.00
2019-03-31T23:07:27.382Z,101934.00
2019-03-31T23:09:58.102Z,101928.00
2019-03-31T23:12:29.110Z,101931.00
2019-03-31T23:15:00.817Z,101937.00
2019-03-31T23:17:31.735Z,101937.00
2019-03-31T23:20:02.674Z,101930.00
2019-03-31T23:22:33.550Z,101926.00
2019-03-31T23:25:05.645Z,101933.00
2019-03-31T23:27:36.026Z,101936.00
2019-03-31T23:30:09.427Z,101937.00
2019-03-31T23:32:39.943Z,101934.00
2019-03-31T23:35:12.623Z,101936.00
2019-03-31T23:37:43.887Z,101935.00
2019-03-31T23:40:14.369Z,101946.00
2019-03-31T23:42:44.791Z,101937.00
2019-03-31T23:45:15.367Z,101952.00
2019-03-31T23:47:45.890Z,101939.00
2019-03-31T23:50:16.679Z,101930.00
2019-03-31T23:52:47.345Z,101931.00
2019-03-31T23:55:18.057Z,101942.00
2019-03-31T23:57:48.644Z,101946.00
